Time;durP1;ratioP1;P1;durP2;ratioP2;P2;SDS_P1;SDS_P2;PMS_P1;PMS_P2;Temp;Humidity;BMP_temperature;BMP_pressure;BME280_temperature;BME280_humidity;BME280_pressure;Samples;Min_cycle;Max_cycle;Signal;HPM_P1;HPM_P2
2022/02/23 00:02:04;;;;;;;0.82;0.50;;;6.10;99.90;;;;;;5036311;28;20468;-89
2022/02/23 00:04:31;;;;;;;1.35;0.77;;;6.10;99.90;;;;;;5035401;28;20042;-88
2022/02/23 00:06:58;;;;;;;2.65;0.52;;;6.10;99.90;;;;;;5036577;28;20056;-89
2022/02/23 00:09:25;;;;;;;1.92;0.55;;;6.10;99.90;;;;;;5035946;28;20063;-89
2022/02/23 00:11:51;;;;;;;6.55;0.80;;;6.10;99.90;;;;;;5034964;28;20518;-89
2022/02/23 00:14:18;;;;;;;3.75;0.80;;;6.00;99.90;;;;;;5034675;28;20083;-88
2022/02/23 00:16:45;;;;;;;2.42;0.73;;;6.00;99.90;;;;;;5035288;28;20055;-89
2022/02/23 00:19:12;;;;;;;3.53;0.77;;;5.80;99.90;;;;;;5035087;28;20071;-89
2022/02/23 00:21:42;;;;;;;3.05;0.80;;;5.60;99.90;;;;;;5034817;28;20076;-89
2022/02/23 00:24:08;;;;;;;1.20;0.80;;;5.40;99.90;;;;;;5034872;28;20064;-89
2022/02/23 00:26:35;;;;;;;3.50;0.65;;;5.40;99.90;;;;;;5034760;28;20049;-89
2022/02/23 00:29:04;;;;;;;3.42;0.70;;;5.30;99.90;;;;;;5036230;28;20088;-90
2022/02/23 00:31:31;;;;;;;4.55;0.80;;;5.10;99.90;;;;;;5035033;28;20056;-89
2022/02/23 00:33:57;;;;;;;3.40;0.73;;;4.90;99.90;;;;;;5035645;28;20053;-90
2022/02/23 00:36:24;;;;;;;2.90;1.15;;;4.80;99.90;;;;;;5034660;28;20053;-88
2022/02/23 00:38:51;;;;;;;5.15;0.85;;;4.80;99.90;;;;;;5035736;28;20041;-89
2022/02/23 00:41:19;;;;;;;2.15;0.90;;;4.80;99.90;;;;;;5034388;28;20053;-89
2022/02/23 00:43:48;;;;;;;4.95;0.80;;;4.80;99.90;;;;;;5034672;28;20057;-88
2022/02/23 00:46:15;;;;;;;4.32;0.95;;;4.90;99.90;;;;;;5035535;28;20084;-89
2022/02/23 00:48:42;;;;;;;4.65;0.90;;;5.00;99.90;;;;;;5035672;28;20049;-90
2022/02/23 00:51:09;;;;;;;5.18;1.27;;;5.00;99.90;;;;;;5034465;28;20045;-90
2022/02/23 00:53:35;;;;;;;5.03;1.10;;;5.00;99.90;;;;;;5034375;28;20049;-89
2022/02/23 00:56:03;;;;;;;9.02;1.67;;;4.90;99.90;;;;;;5034257;28;20094;-89
2022/02/23 00:58:30;;;;;;;4.82;1.17;;;4.80;99.90;;;;;;5034223;28;20049;-90
2022/02/23 01:00:57;;;;;;;10.35;1.45;;;4.80;99.90;;;;;;5034465;28;20077;-90
2022/02/23 01:03:24;;;;;;;7.13;1.10;;;4.90;99.90;;;;;;5034140;28;20107;-90
2022/02/23 01:05:54;;;;;;;4.00;0.93;;;4.80;99.90;;;;;;5035282;28;20492;-88
2022/02/23 01:08:21;;;;;;;5.35;1.23;;;5.00;99.90;;;;;;5035041;28;20490;-90
2022/02/23 01:10:48;;;;;;;3.25;1.10;;;5.00;99.90;;;;;;5034901;28;20063;-90
2022/02/23 01:13:14;;;;;;;4.97;1.20;;;5.00;99.90;;;;;;5035149;28;20080;-90
2022/02/23 01:15:41;;;;;;;6.75;1.20;;;4.90;99.90;;;;;;5034277;28;20052;-90
2022/02/23 01:18:08;;;;;;;8.20;1.27;;;5.00;99.90;;;;;;5033881;28;20059;-91
2022/02/23 01:20:35;;;;;;;8.57;1.30;;;4.90;99.90;;;;;;5034084;28;20045;-91
2022/02/23 01:23:03;;;;;;;6.70;1.35;;;4.90;99.90;;;;;;5035382;28;20050;-90
2022/02/23 01:25:31;;;;;;;5.28;1.00;;;4.90;99.90;;;;;;5033155;28;20451;-89
2022/02/23 01:28:02;;;;;;;8.32;1.30;;;4.80;99.90;;;;;;5033668;28;20097;-90
2022/02/23 01:30:29;;;;;;;7.78;1.17;;;4.70;99.90;;;;;;5033509;28;20413;-90
2022/02/23 01:32:56;;;;;;;4.72;1.02;;;4.50;99.90;;;;;;5034700;28;20053;-90
2022/02/23 01:35:23;;;;;;;9.77;1.15;;;4.50;99.90;;;;;;5033489;28;20042;-90
2022/02/23 01:37:52;;;;;;;6.00;1.63;;;4.30;99.90;;;;;;5033551;28;20486;-91
2022/02/23 01:40:20;;;;;;;9.95;1.88;;;4.10;99.90;;;;;;5033288;28;20136;-93
2022/02/23 01:42:47;;;;;;;13.07;1.60;;;4.10;99.90;;;;;;5033710;28;20428;-89
2022/02/23 01:45:14;;;;;;;4.80;1.02;;;4.20;99.90;;;;;;5033534;28;20064;-91
2022/02/23 01:47:41;;;;;;;13.23;1.50;;;4.20;99.90;;;;;;5033244;28;20057;-89
2022/02/23 01:50:12;;;;;;;8.45;1.27;;;4.20;99.90;;;;;;5033075;28;20498;-91
2022/02/23 01:52:39;;;;;;;9.85;2.00;;;4.00;99.90;;;;;;5033392;28;20055;-90
2022/02/23 01:55:09;;;;;;;8.68;1.60;;;3.90;99.90;;;;;;5033580;28;20060;-91
2022/02/23 01:57:36;;;;;;;6.63;1.42;;;3.70;99.90;;;;;;5033401;28;20080;-90
2022/02/23 02:00:08;;;;;;;10.82;1.33;;;3.50;99.90;;;;;;5032979;28;20441;-92
2022/02/23 02:02:35;;;;;;;10.77;1.85;;;3.40;99.90;;;;;;5033217;28;20128;-92
2022/02/23 02:05:04;;;;;;;10.02;1.45;;;3.30;99.90;;;;;;5033186;28;20085;-91
2022/02/23 02:07:32;;;;;;;7.68;1.45;;;3.30;99.90;;;;;;5033512;28;20453;-91
2022/02/23 02:09:58;;;;;;;10.82;1.52;;;3.20;99.90;;;;;;5033226;28;20500;-92
2022/02/23 02:12:25;;;;;;;7.75;1.30;;;3.00;99.90;;;;;;5033272;28;20053;-91
2022/02/23 02:14:53;;;;;;;9.15;1.42;;;3.00;99.90;;;;;;5033124;28;20121;-92
2022/02/23 02:17:20;;;;;;;5.63;1.38;;;2.80;99.90;;;;;;5032886;28;20136;-92
2022/02/23 02:19:46;;;;;;;8.80;1.67;;;2.60;99.90;;;;;;5033194;28;20075;-90
2022/02/23 02:22:14;;;;;;;11.02;1.92;;;2.50;99.90;;;;;;5033198;28;20050;-91
2022/02/23 02:24:41;;;;;;;11.60;1.75;;;2.50;99.90;;;;;;5032912;28;20045;-92
2022/02/23 02:27:14;;;;;;;6.43;1.10;;;2.30;99.90;;;;;;5033025;28;20077;-91
2022/02/23 02:29:43;;;;;;;7.70;2.25;;;2.30;99.90;;;;;;5032826;28;20096;-92
2022/02/23 02:32:10;;;;;;;8.85;1.63;;;2.30;99.90;;;;;;5033319;28;20045;-92
2022/02/23 02:34:38;;;;;;;9.80;1.55;;;2.30;99.90;;;;;;5033261;28;20053;-91
2022/02/23 02:37:05;;;;;;;11.90;1.45;;;2.20;99.90;;;;;;5032938;28;20141;-91
2022/02/23 02:39:34;;;;;;;9.43;1.33;;;2.10;99.90;;;;;;5032853;28;20053;-91
2022/02/23 02:42:02;;;;;;;9.77;1.77;;;2.00;99.90;;;;;;5032592;28;20409;-91
2022/02/23 02:44:29;;;;;;;14.20;1.70;;;1.90;99.90;;;;;;5032594;28;20067;-91
2022/02/23 02:46:56;;;;;;;13.57;1.63;;;2.00;99.90;;;;;;5032547;28;20084;-91
2022/02/23 02:49:22;;;;;;;9.77;1.60;;;1.90;99.90;;;;;;5032428;28;20508;-91
2022/02/23 02:51:49;;;;;;;6.88;1.70;;;1.80;99.90;;;;;;5032650;28;20056;-91
2022/02/23 02:54:17;;;;;;;15.73;2.40;;;1.80;99.90;;;;;;5032753;28;20049;-91
2022/02/23 02:56:44;;;;;;;13.07;1.92;;;1.80;99.90;;;;;;5032594;28;20137;-92
2022/02/23 02:59:11;;;;;;;17.45;2.20;;;1.80;99.90;;;;;;5032397;28;20057;-92
2022/02/23 03:01:38;;;;;;;15.32;1.80;;;1.80;99.90;;;;;;5032715;28;20049;-92
2022/02/23 03:04:06;;;;;;;12.70;1.95;;;1.80;99.90;;;;;;5031991;28;20076;-91
2022/02/23 03:06:35;;;;;;;8.40;1.88;;;1.80;99.90;;;;;;5034423;28;20449;-92
2022/02/23 03:09:05;;;;;;;10.65;1.90;;;1.80;99.90;;;;;;5032436;28;20075;-92
2022/02/23 03:11:31;;;;;;;16.45;1.85;;;1.70;99.90;;;;;;5032108;28;20049;-92
2022/02/23 03:13:58;;;;;;;14.73;2.20;;;1.60;99.90;;;;;;5032367;28;20071;-92
2022/02/23 03:16:25;;;;;;;13.85;1.80;;;1.60;99.90;;;;;;5032409;28;20490;-93
2022/02/23 03:18:52;;;;;;;17.08;1.63;;;1.50;99.90;;;;;;5032291;28;20045;-92
2022/02/23 03:21:19;;;;;;;12.32;1.80;;;1.50;99.90;;;;;;5032267;28;20060;-92
2022/02/23 03:23:46;;;;;;;9.73;2.35;;;1.50;99.90;;;;;;5032305;28;20144;-92
2022/02/23 03:26:13;;;;;;;12.98;2.50;;;1.40;99.90;;;;;;5032437;28;20582;-92
2022/02/23 03:28:41;;;;;;;21.27;2.80;;;1.30;99.90;;;;;;5031956;28;20049;-93
2022/02/23 03:31:09;;;;;;;12.40;2.15;;;1.30;99.90;;;;;;5031938;28;20048;-92
2022/02/23 03:33:43;;;;;;;12.07;2.80;;;1.40;99.90;;;;;;5032097;28;20060;-93
2022/02/23 03:36:14;;;;;;;14.40;2.72;;;1.50;99.90;;;;;;5032314;28;20056;-92
2022/02/23 03:38:43;;;;;;;11.38;2.08;;;1.50;99.90;;;;;;5031899;28;20049;-92
2022/02/23 03:41:10;;;;;;;10.73;2.15;;;1.30;99.90;;;;;;5032115;28;20096;-93
2022/02/23 03:43:38;;;;;;;9.07;2.22;;;1.30;99.90;;;;;;5032042;28;20137;-93
2022/02/23 03:46:06;;;;;;;13.90;2.50;;;1.20;99.90;;;;;;5031973;28;20051;-93
2022/02/23 03:48:33;;;;;;;14.05;2.55;;;1.10;99.90;;;;;;5033121;28;20049;-93
2022/02/23 03:50:59;;;;;;;17.23;2.63;;;1.10;99.90;;;;;;5036465;28;20052;-93
2022/02/23 03:53:26;;;;;;;15.02;2.63;;;1.00;99.90;;;;;;5035714;28;20532;-94
2022/02/23 03:55:53;;;;;;;13.27;3.00;;;1.00;99.90;;;;;;5035673;28;20073;-94
2022/02/23 03:58:20;;;;;;;15.00;3.45;;;0.90;99.90;;;;;;5035372;28;20073;-93
2022/02/23 04:00:47;;;;;;;25.52;3.60;;;1.00;99.90;;;;;;5035408;28;20624;-93
2022/02/23 04:03:13;;;;;;;16.40;4.53;;;1.10;99.90;;;;;;5035576;28;20049;-93
2022/02/23 04:05:42;;;;;;;19.17;4.78;;;1.20;99.90;;;;;;5034960;28;20053;-91
2022/02/23 04:08:08;;;;;;;21.77;5.82;;;1.30;99.90;;;;;;5035327;28;20103;-93
2022/02/23 04:10:36;;;;;;;20.98;4.95;;;1.40;99.90;;;;;;5035304;28;20060;-94
2022/02/23 04:13:06;;;;;;;22.48;5.28;;;1.40;99.90;;;;;;5035372;28;20063;-93
2022/02/23 04:15:33;;;;;;;24.50;4.95;;;1.30;99.90;;;;;;5036341;28;20052;-93
2022/02/23 04:18:00;;;;;;;20.40;4.15;;;1.30;99.90;;;;;;5035148;28;20132;-93
2022/02/23 04:20:27;;;;;;;13.95;3.13;;;1.30;99.90;;;;;;5036369;28;20059;-94
2022/02/23 04:22:53;;;;;;;18.77;2.63;;;1.20;99.90;;;;;;5037426;28;20096;-93
2022/02/23 04:25:20;;;;;;;12.52;2.47;;;1.20;99.90;;;;;;5037195;28;20072;-93
2022/02/23 04:27:48;;;;;;;12.35;2.88;;;1.20;99.90;;;;;;5035452;28;20045;-94
2022/02/23 04:30:14;;;;;;;19.55;2.72;;;1.10;99.90;;;;;;5035361;28;20509;-93
2022/02/23 04:32:41;;;;;;;17.83;2.63;;;1.10;99.90;;;;;;5034813;28;20045;-93
2022/02/23 04:35:08;;;;;;;8.70;2.05;;;1.00;99.90;;;;;;5035082;28;20069;-94
2022/02/23 04:37:35;;;;;;;9.70;2.08;;;0.90;99.90;;;;;;5036131;28;20405;-93
2022/02/23 04:40:03;;;;;;;14.13;2.60;;;0.80;99.90;;;;;;5035259;28;20554;-93
2022/02/23 04:42:29;;;;;;;12.00;2.45;;;0.80;99.90;;;;;;5035411;28;20045;-94
2022/02/23 04:45:00;;;;;;;16.17;2.33;;;0.70;99.90;;;;;;5034921;28;20144;-93
2022/02/23 04:47:29;;;;;;;11.27;2.03;;;0.70;99.90;;;;;;5034679;28;20053;-93
2022/02/23 04:49:56;;;;;;;12.05;2.03;;;0.70;99.90;;;;;;5036395;28;20114;-93
2022/02/23 04:52:24;;;;;;;14.70;2.15;;;0.60;99.90;;;;;;5034714;28;20498;-93
2022/02/23 04:54:53;;;;;;;19.65;2.50;;;0.50;99.90;;;;;;5034449;28;20053;-93
2022/02/23 04:57:20;;;;;;;20.45;3.53;;;0.40;99.90;;;;;;5035574;28;20148;-92
2022/02/23 04:59:48;;;;;;;12.32;2.20;;;0.40;99.90;;;;;;5035285;28;20068;-94
2022/02/23 05:02:15;;;;;;;14.27;2.13;;;0.40;99.90;;;;;;5035380;28;20132;-93
2022/02/23 05:04:42;;;;;;;16.35;2.35;;;0.40;99.90;;;;;;5036193;28;20050;-93
2022/02/23 05:07:09;;;;;;;12.35;2.88;;;0.30;99.90;;;;;;5034754;28;20050;-93
2022/02/23 05:09:37;;;;;;;18.52;2.28;;;0.30;99.90;;;;;;5034472;28;20057;-93
2022/02/23 05:12:06;;;;;;;17.70;2.90;;;0.30;99.90;;;;;;5034281;28;20050;-93
2022/02/23 05:14:33;;;;;;;14.30;2.78;;;0.20;99.90;;;;;;5035973;28;20541;-93
2022/02/23 05:17:00;;;;;;;19.17;2.30;;;0.10;99.90;;;;;;5034201;28;20053;-93
2022/02/23 05:19:29;;;;;;;20.25;2.78;;;0.10;99.90;;;;;;5034482;28;20504;-93
2022/02/23 05:21:55;;;;;;;19.67;2.63;;;0.10;99.90;;;;;;5034148;28;20085;-93
2022/02/23 05:24:23;;;;;;;17.67;3.25;;;0.00;99.90;;;;;;5034349;28;20055;-93
2022/02/23 05:26:50;;;;;;;13.73;2.58;;;-0.10;99.90;;;;;;5034005;28;20073;-93
2022/02/23 05:29:17;;;;;;;24.05;3.00;;;-0.10;99.90;;;;;;5033639;28;20057;-93
2022/02/23 05:31:44;;;;;;;8.95;2.03;;;-0.20;99.90;;;;;;5033815;28;20053;-93
2022/02/23 05:34:10;;;;;;;18.05;2.70;;;-0.30;99.90;;;;;;5033858;28;20124;-93
2022/02/23 05:36:37;;;;;;;12.85;1.95;;;-0.30;99.90;;;;;;5033841;28;20053;-92
2022/02/23 05:39:06;;;;;;;18.48;2.90;;;-0.30;99.90;;;;;;5033425;28;20506;-92
2022/02/23 05:41:33;;;;;;;12.38;2.78;;;-0.30;99.90;;;;;;5033548;28;20049;-93
2022/02/23 05:44:01;;;;;;;12.27;3.05;;;-0.40;99.90;;;;;;5032195;28;20045;-93
2022/02/23 05:46:28;;;;;;;18.30;3.45;;;-0.40;99.90;;;;;;5033787;28;20112;-93
2022/02/23 05:48:55;;;;;;;17.75;3.17;;;-0.40;99.90;;;;;;5033352;28;20136;-93
2022/02/23 05:51:38;;;;;;;16.10;2.88;;;-0.40;99.90;;;;;;5033455;28;20140;-93
2022/02/23 05:54:06;;;;;;;20.35;4.07;;;-0.50;99.90;;;;;;5033313;28;20077;-93
2022/02/23 05:56:33;;;;;;;11.63;3.20;;;-0.50;99.90;;;;;;5033464;28;20049;-93
2022/02/23 05:59:00;;;;;;;17.30;3.72;;;-0.50;99.90;;;;;;5033263;28;20432;-93
2022/02/23 06:01:26;;;;;;;14.73;5.28;;;-0.40;99.90;;;;;;5033102;28;20049;-93
2022/02/23 06:03:54;;;;;;;17.25;3.72;;;-0.40;99.90;;;;;;5033174;28;20055;-93
2022/02/23 06:06:20;;;;;;;19.27;3.20;;;-0.50;99.90;;;;;;5032865;28;20546;-93
2022/02/23 06:08:48;;;;;;;11.73;2.40;;;-0.40;99.90;;;;;;5033153;28;20056;-93
2022/02/23 06:11:16;;;;;;;18.15;2.70;;;-0.30;99.90;;;;;;5032862;28;20426;-93
2022/02/23 06:13:50;;;;;;;14.10;5.47;;;-0.40;99.90;;;;;;5033351;28;20059;-93
2022/02/23 06:16:19;;;;;;;21.20;9.85;;;-0.50;99.90;;;;;;5034088;28;20230;-93
2022/02/23 06:18:46;;;;;;;21.63;8.63;;;-0.50;99.90;;;;;;5034532;28;20141;-93
2022/02/23 06:21:12;;;;;;;31.20;14.88;;;-0.60;99.90;;;;;;5032987;28;20136;-94
2022/02/23 06:23:39;;;;;;;84.30;50.13;;;-0.70;99.90;;;;;;5032924;28;20064;-93
2022/02/23 06:26:06;;;;;;;71.22;42.42;;;-0.70;99.90;;;;;;5033129;28;20077;-92
2022/02/23 06:28:33;;;;;;;53.70;22.08;;;-0.70;99.90;;;;;;5032758;28;20056;-94
2022/02/23 06:31:00;;;;;;;39.72;16.35;;;-0.70;99.90;;;;;;5032782;28;20124;-93
2022/02/23 06:33:28;;;;;;;41.15;20.70;;;-0.70;99.90;;;;;;5032635;28;20132;-93
2022/02/23 06:35:55;;;;;;;50.72;19.52;;;-0.60;99.90;;;;;;5032596;28;20446;-94
2022/02/23 06:38:23;;;;;;;49.25;22.92;;;-0.60;99.90;;;;;;5033154;28;20061;-94
2022/02/23 06:40:55;;;;;;;42.80;24.05;;;-0.60;99.90;;;;;;5032835;28;20055;-93
2022/02/23 06:43:24;;;;;;;36.78;19.33;;;-0.60;99.90;;;;;;5032934;28;20059;-94
2022/02/23 06:45:51;;;;;;;33.50;18.33;;;-0.60;99.90;;;;;;5032856;28;20095;-94
2022/02/23 06:48:19;;;;;;;44.47;17.90;;;-0.60;99.90;;;;;;5032774;28;20403;-93
2022/02/23 06:50:46;;;;;;;34.45;15.95;;;-0.60;99.90;;;;;;5032443;28;20057;-93
2022/02/23 06:53:15;;;;;;;24.85;13.73;;;-0.50;99.90;;;;;;5032860;28;20140;-94
2022/02/23 06:55:43;;;;;;;27.88;14.45;;;-0.50;99.90;;;;;;5032723;28;20045;-94
2022/02/23 06:58:10;;;;;;;42.35;15.77;;;-0.60;99.90;;;;;;5032752;28;20067;-94
2022/02/23 07:00:38;;;;;;;42.67;15.10;;;-0.60;99.90;;;;;;5032448;28;20132;-94
2022/02/23 07:03:05;;;;;;;42.22;17.30;;;-0.60;99.90;;;;;;5032921;28;20064;-94
2022/02/23 07:05:32;;;;;;;44.03;20.80;;;-0.50;99.90;;;;;;5032764;28;20145;-94
2022/02/23 07:08:02;;;;;;;46.05;26.60;;;-0.40;99.90;;;;;;5037085;28;20049;-92
2022/02/23 07:10:33;;;;;;;59.30;31.97;;;-0.20;99.90;;;;;;5052035;28;20136;-94
2022/02/23 07:13:04;;;;;;;51.65;29.13;;;-0.10;99.90;;;;;;5048895;28;20140;-93
2022/02/23 07:15:34;;;;;;;43.90;19.45;;;0.00;99.90;;;;;;5033430;28;20057;-94
2022/02/23 07:18:01;;;;;;;65.50;30.13;;;0.20;99.90;;;;;;5032763;28;20053;-93
2022/02/23 07:20:28;;;;;;;49.40;28.52;;;0.20;99.90;;;;;;5032945;28;20053;-94
2022/02/23 07:22:55;;;;;;;51.30;28.50;;;0.20;99.90;;;;;;5032298;28;20163;-94
2022/02/23 07:25:22;;;;;;;47.35;29.25;;;0.10;99.90;;;;;;5036110;28;20133;-95
2022/02/23 07:27:49;;;;;;;61.88;32.22;;;0.20;99.90;;;;;;5036476;28;20045;-94
2022/02/23 07:30:17;;;;;;;47.65;24.88;;;0.10;99.90;;;;;;5036997;28;20140;-94
2022/02/23 07:32:48;;;;;;;51.80;25.33;;;0.10;99.90;;;;;;5039866;28;20057;-93
2022/02/23 07:35:15;;;;;;;76.25;29.83;;;0.10;99.90;;;;;;5037546;28;20095;-94
2022/02/23 07:37:44;;;;;;;64.18;31.17;;;0.20;99.90;;;;;;5036649;28;20145;-94
2022/02/23 07:40:14;;;;;;;82.00;37.05;;;0.40;99.90;;;;;;5035917;28;20099;-94
2022/02/23 07:43:03;;;;;;;119.57;52.08;;;0.60;99.90;;;;;;5036076;28;20053;-93
2022/02/23 07:45:36;;;;;;;88.32;46.15;;;0.70;99.90;;;;;;5036544;28;20080;-94
2022/02/23 07:48:04;;;;;;;93.32;46.28;;;0.90;99.90;;;;;;5035692;28;20140;-94
2022/02/23 07:50:32;;;;;;;83.07;44.60;;;0.90;99.90;;;;;;5035882;28;20081;-94
2022/02/23 07:52:59;;;;;;;62.78;34.45;;;1.00;99.90;;;;;;5036044;28;20065;-94
2022/02/23 07:55:26;;;;;;;49.42;23.38;;;1.00;99.90;;;;;;5035957;28;20136;-94
2022/02/23 07:57:53;;;;;;;55.60;23.85;;;1.00;99.90;;;;;;5035968;28;20056;-94
2022/02/23 08:00:22;;;;;;;35.92;17.08;;;1.10;99.90;;;;;;5035808;28;20140;-94
2022/02/23 08:02:49;;;;;;;56.25;25.27;;;1.10;99.90;;;;;;5035732;28;20056;-94
2022/02/23 08:05:16;;;;;;;46.55;23.30;;;1.20;99.90;;;;;;5035773;28;20088;-94
2022/02/23 08:07:42;;;;;;;59.90;26.50;;;1.40;99.90;;;;;;5035555;28;20092;-93
2022/02/23 08:10:09;;;;;;;53.50;27.95;;;2.20;99.90;;;;;;5046633;28;20503;-91
2022/02/23 08:12:36;;;;;;;52.97;25.90;;;4.20;99.90;;;;;;5052034;28;20046;-91
2022/02/23 08:20:45;;;;;;;10.63;2.90;;;7.90;99.90;;;;;;5037092;28;20045;-91
2022/02/23 08:23:13;;;;;;;9.07;2.10;;;7.80;99.90;;;;;;5053856;28;20045;-92
2022/02/23 08:25:40;;;;;;;9.63;2.00;;;7.70;99.90;;;;;;5052219;28;20137;-91
2022/02/23 08:28:07;;;;;;;7.47;1.85;;;8.60;99.90;;;;;;5051087;28;20045;-91
2022/02/23 08:30:35;;;;;;;6.03;2.10;;;9.60;99.90;;;;;;5034896;28;20060;-92
2022/02/23 08:33:03;;;;;;;7.72;2.38;;;10.60;99.90;;;;;;5035199;28;20061;-91
2022/02/23 08:35:42;;;;;;;9.35;1.67;;;11.40;99.90;;;;;;5034522;28;20057;-92
2022/02/23 08:38:11;;;;;;;9.60;1.55;;;12.80;99.90;;;;;;5034838;28;20065;-92
2022/02/23 08:40:43;;;;;;;6.85;1.73;;;12.70;98.10;;;;;;5034770;28;20132;-91
2022/02/23 08:43:11;;;;;;;5.43;1.48;;;12.60;95.90;;;;;;5035355;28;20064;-92
2022/02/23 08:45:38;;;;;;;4.30;1.30;;;13.10;96.20;;;;;;5036126;28;20056;-92
2022/02/23 08:48:08;;;;;;;5.22;1.30;;;13.40;94.30;;;;;;5036176;28;20057;-92
2022/02/23 08:50:35;;;;;;;5.10;1.33;;;13.60;91.20;;;;;;5035292;28;20053;-92
2022/02/23 08:53:02;;;;;;;8.52;1.50;;;14.30;90.40;;;;;;5034917;28;20558;-91
2022/02/23 08:55:29;;;;;;;7.85;1.85;;;14.00;88.00;;;;;;5034839;28;20163;-92
2022/02/23 08:57:58;;;;;;;4.72;1.58;;;14.70;84.70;;;;;;5034738;28;20056;-92
2022/02/23 09:00:26;;;;;;;5.53;1.30;;;14.90;84.10;;;;;;5034692;28;20560;-92
2022/02/23 09:02:53;;;;;;;6.40;1.35;;;14.40;83.30;;;;;;5034995;28;20063;-93
2022/02/23 09:05:20;;;;;;;7.20;1.70;;;14.60;85.90;;;;;;5034590;28;20084;-90
2022/02/23 09:07:47;;;;;;;3.30;1.17;;;15.30;82.30;;;;;;5034442;28;20057;-91
2022/02/23 09:10:13;;;;;;;7.72;1.60;;;15.80;84.20;;;;;;5034340;28;20049;-90
2022/02/23 09:12:40;;;;;;;4.45;1.58;;;17.00;78.60;;;;;;5034505;28;20549;-92
2022/02/23 09:15:09;;;;;;;5.20;1.40;;;16.70;79.40;;;;;;5034295;28;20253;-90
2022/02/23 09:17:36;;;;;;;6.95;1.60;;;16.90;73.00;;;;;;5034466;28;20133;-91
2022/02/23 09:20:03;;;;;;;6.70;1.35;;;16.80;74.70;;;;;;5033891;28;20057;-92
2022/02/23 09:22:30;;;;;;;7.13;1.65;;;16.90;73.90;;;;;;5034231;28;20513;-89
2022/02/23 09:24:56;;;;;;;6.38;1.42;;;16.80;70.40;;;;;;5034820;28;20045;-92
2022/02/23 09:27:23;;;;;;;7.85;1.17;;;15.90;71.70;;;;;;5034190;28;20199;-93
2022/02/23 09:29:50;;;;;;;4.05;1.42;;;15.90;75.90;;;;;;5033904;28;20053;-92
2022/02/23 09:32:17;;;;;;;5.30;1.77;;;16.40;73.40;;;;;;5033895;28;20055;-91
2022/02/23 09:34:43;;;;;;;3.42;1.15;;;16.30;73.50;;;;;;5033801;28;20059;-92
2022/02/23 09:37:10;;;;;;;5.55;1.25;;;17.00;71.50;;;;;;5033813;28;20047;-91
2022/02/23 09:39:37;;;;;;;5.95;1.15;;;18.10;67.30;;;;;;5033763;28;20059;-91
2022/02/23 09:42:04;;;;;;;4.47;1.65;;;18.40;66.50;;;;;;5033618;28;20045;-91
2022/02/23 09:44:31;;;;;;;2.08;1.08;;;18.30;66.30;;;;;;5033643;28;20168;-92
2022/02/23 09:47:00;;;;;;;4.10;1.30;;;17.50;65.00;;;;;;5033043;28;20049;-85
2022/02/23 09:49:29;;;;;;;3.08;1.20;;;17.60;66.20;;;;;;5033275;28;20049;-93
2022/02/23 09:51:57;;;;;;;7.22;2.03;;;17.00;66.70;;;;;;5033664;28;20064;-93
2022/02/23 09:54:24;;;;;;;2.28;1.00;;;16.40;68.00;;;;;;5033730;28;20075;-92
2022/02/23 09:56:51;;;;;;;7.75;1.77;;;16.90;70.00;;;;;;5033727;28;20132;-92
2022/02/23 09:59:17;;;;;;;4.50;1.40;;;16.90;69.80;;;;;;5034324;28;20071;-91
2022/02/23 10:01:45;;;;;;;5.20;1.20;;;16.80;68.40;;;;;;5051812;28;20553;-91
2022/02/23 10:04:13;;;;;;;6.13;1.55;;;16.40;68.80;;;;;;5033645;28;20136;-91
2022/02/23 10:06:42;;;;;;;7.22;1.55;;;16.60;69.60;;;;;;5033724;28;20490;-91
2022/02/23 10:09:13;;;;;;;4.15;1.30;;;17.30;68.00;;;;;;5033552;28;20049;-92
2022/02/23 10:11:42;;;;;;;4.93;1.45;;;17.00;65.80;;;;;;5033196;28;20045;-92
2022/02/23 10:14:11;;;;;;;8.15;1.73;;;17.40;66.10;;;;;;5033415;28;20049;-92
2022/02/23 10:16:40;;;;;;;5.03;1.40;;;17.20;66.10;;;;;;5033070;28;20148;-92
2022/02/23 10:19:21;;;;;;;7.93;1.67;;;17.40;67.00;;;;;;5033047;28;20056;-91
2022/02/23 10:21:55;;;;;;;9.02;1.45;;;17.70;65.70;;;;;;5033100;28;20053;-92
2022/02/23 10:24:32;;;;;;;8.90;1.85;;;17.90;66.10;;;;;;5034415;28;20068;-93
2022/02/23 10:27:10;;;;;;;7.05;1.63;;;18.00;64.00;;;;;;5033573;28;20053;-92
2022/02/23 10:29:44;;;;;;;5.68;1.67;;;17.60;63.60;;;;;;5034349;28;20052;-90
2022/02/23 10:32:14;;;;;;;3.58;1.40;;;17.30;63.50;;;;;;5033982;28;20041;-91
2022/02/23 10:34:47;;;;;;;5.93;1.70;;;16.50;64.30;;;;;;5035472;28;20057;-90
2022/02/23 10:37:23;;;;;;;3.22;1.48;;;16.10;66.40;;;;;;5034429;28;20509;-93
2022/02/23 10:40:00;;;;;;;5.43;1.10;;;16.00;67.30;;;;;;5033603;28;20060;-92
2022/02/23 10:42:29;;;;;;;9.00;1.80;;;16.10;66.70;;;;;;5032988;28;20045;-92
2022/02/23 10:44:58;;;;;;;5.30;1.52;;;16.10;68.10;;;;;;5032789;28;20449;-93
2022/02/23 10:47:34;;;;;;;5.32;1.48;;;15.80;67.70;;;;;;5034457;28;20470;-91
2022/02/23 10:50:11;;;;;;;4.35;1.60;;;15.60;67.40;;;;;;5032678;28;20064;-92
2022/02/23 10:52:51;;;;;;;6.32;1.80;;;15.20;69.30;;;;;;5032526;28;20076;-93
2022/02/23 10:55:25;;;;;;;9.90;1.80;;;16.30;69.30;;;;;;5033442;28;20144;-93
2022/02/23 10:57:56;;;;;;;4.32;1.10;;;16.80;66.40;;;;;;5035630;28;20060;-91
2022/02/23 11:00:27;;;;;;;5.15;1.60;;;17.00;65.40;;;;;;5039620;28;20079;-92
2022/02/23 11:02:56;;;;;;;6.90;1.90;;;17.10;65.50;;;;;;5040378;28;20049;-93
2022/02/23 11:05:24;;;;;;;5.97;1.50;;;17.60;64.20;;;;;;5039267;28;20107;-92
2022/02/23 11:07:55;;;;;;;6.53;1.80;;;18.00;64.20;;;;;;5039866;28;20156;-90
2022/02/23 11:10:24;;;;;;;3.55;1.10;;;17.30;62.10;;;;;;5039128;28;20057;-95
2022/02/23 11:12:53;;;;;;;7.40;1.50;;;17.50;62.40;;;;;;5039638;28;20136;-91
2022/02/23 11:15:22;;;;;;;7.60;1.58;;;17.80;62.00;;;;;;5042940;28;20112;-91
2022/02/23 11:17:53;;;;;;;6.45;1.55;;;18.50;62.50;;;;;;5040522;28;20046;-93
2022/02/23 11:20:26;;;;;;;4.88;1.23;;;19.30;60.30;;;;;;5040466;28;20493;-92
2022/02/23 11:22:56;;;;;;;6.75;1.65;;;19.20;58.50;;;;;;5039119;28;20046;-92
2022/02/23 11:25:36;;;;;;;5.65;1.27;;;19.20;59.30;;;;;;5039341;28;20521;-91
2022/02/23 11:28:18;;;;;;;5.30;1.30;;;19.60;59.40;;;;;;5039299;28;20049;-92
2022/02/23 11:30:45;;;;;;;11.38;2.08;;;20.00;58.40;;;;;;5039117;28;20441;-91
2022/02/23 11:33:15;;;;;;;4.75;1.42;;;20.10;58.30;;;;;;5039870;28;20485;-93
2022/02/23 11:35:53;;;;;;;9.80;1.70;;;19.80;57.70;;;;;;5042861;28;20066;-93
2022/02/23 11:38:26;;;;;;;5.57;1.30;;;19.10;57.20;;;;;;5044380;28;20045;-94
2022/02/23 11:40:56;;;;;;;5.55;1.55;;;18.30;58.20;;;;;;5040326;28;20061;-93
2022/02/23 11:43:29;;;;;;;5.25;1.38;;;18.20;59.50;;;;;;5040581;28;20049;-91
2022/02/23 11:45:59;;;;;;;6.10;1.17;;;18.40;59.00;;;;;;5041256;28;20088;-92
2022/02/23 11:48:49;;;;;;;4.97;1.52;;;18.70;58.20;;;;;;5041595;28;20061;-91
2022/02/23 11:51:24;;;;;;;9.02;1.58;;;18.70;58.60;;;;;;5039397;28;20140;-92
2022/02/23 11:53:51;;;;;;;5.53;1.40;;;18.80;59.00;;;;;;5040337;28;20440;-91
2022/02/23 11:56:20;;;;;;;5.05;1.40;;;18.20;57.70;;;;;;5039721;28;20061;-93
2022/02/23 11:59:07;;;;;;;4.90;1.40;;;18.40;59.00;;;;;;5040044;28;20502;-93
2022/02/23 12:01:47;;;;;;;4.85;1.30;;;18.60;58.90;;;;;;5038928;28;20136;-89
2022/02/23 12:04:16;;;;;;;5.45;1.70;;;18.50;58.60;;;;;;5040108;28;20045;-91
2022/02/23 12:07:09;;;;;;;6.65;1.23;;;17.90;60.80;;;;;;5040981;28;20049;-93
2022/02/23 12:09:48;;;;;;;6.53;1.58;;;18.10;59.20;;;;;;5038930;28;20069;-93
2022/02/23 12:12:32;;;;;;;3.22;1.10;;;18.10;58.90;;;;;;5036709;28;20091;-91
2022/02/23 12:15:02;;;;;;;;;;;18.60;59.40;;;;;;5036892;28;20569;-93
2022/02/23 12:17:50;;;;;;;7.35;1.50;;;19.00;58.80;;;;;;5036281;28;20024;-91
2022/02/23 12:20:38;;;;;;;6.57;1.63;;;19.10;58.10;;;;;;5037340;28;20132;-93
2022/02/23 12:23:09;;;;;;;5.13;1.35;;;18.50;58.10;;;;;;5036254;28;20049;-94
2022/02/23 12:25:55;;;;;;;3.70;1.20;;;18.30;57.90;;;;;;5036228;28;20077;-91
2022/02/23 12:28:30;;;;;;;7.45;1.40;;;18.20;58.50;;;;;;5036486;28;20060;-91
2022/02/23 12:31:04;;;;;;;4.68;1.50;;;18.00;60.00;;;;;;5038032;28;20417;-93
2022/02/23 12:33:32;;;;;;;4.72;1.40;;;18.10;60.10;;;;;;5035868;28;20133;-93
2022/02/23 12:36:01;;;;;;;6.57;1.38;;;17.50;59.00;;;;;;5035973;28;20413;-92
2022/02/23 12:38:33;;;;;;;10.43;1.58;;;16.80;61.50;;;;;;5036227;28;20049;-92
2022/02/23 12:41:09;;;;;;;7.18;1.70;;;16.50;62.40;;;;;;5036367;28;20429;-92
2022/02/23 12:43:37;;;;;;;5.68;1.58;;;16.50;63.20;;;;;;5037503;28;20053;-91
2022/02/23 12:46:04;;;;;;;6.88;1.98;;;16.10;62.60;;;;;;5036103;28;20417;-92
2022/02/23 12:48:33;;;;;;;5.03;1.38;;;15.50;63.40;;;;;;5034755;28;20465;-91
2022/02/23 12:51:05;;;;;;;4.25;1.10;;;15.20;62.60;;;;;;5034761;28;20049;-92
2022/02/23 12:53:46;;;;;;;8.02;1.40;;;15.40;63.60;;;;;;5035110;28;20387;-92
2022/02/23 12:56:17;;;;;;;12.13;1.67;;;15.40;63.30;;;;;;5034906;28;20069;-91
2022/02/23 12:58:45;;;;;;;5.70;1.38;;;14.70;66.30;;;;;;5035376;28;20060;-91
2022/02/23 13:01:23;;;;;;;3.50;1.10;;;14.90;65.70;;;;;;5034808;28;20049;-94